Terminal Aerodrome Forecast
Issued by NWS Twin Cities, MN

Home | Current Version | Previous Version | Graphics & Text | Print | Product List | Glossary On
Versions: 1 2 3 4 5 6 7 8 9 10 11 12 13 14 15 16 17 18 19 20 21 22 23 24 25 26 27 28 29 30
000
FTUS43 KMPX 261728
TAFMSP
TAF
KMSP 261728Z 2618/2724 24008KT P6SM FEW250
     FM270200 VRB03KT P6SM OVC250
     FM271000 09005KT P6SM -SHRA OVC050 PROB30 2712/2716 -TSRA
      BKN020CB
     FM271600 13007KT P6SM VCSH OVC040
     FM271900 15007KT P6SM SCT040 BKN200=

USA.gov is the U.S. government's official web portal to all federal, state and local government web resources and services.